Data for 01/08/2008

Time Sea-Level Adjusted Pressure Absolute Pressure Temperature Relative Humidity Dew Point   
(mb) (inHg) (mb) (inHg) (C) (F) (%) (C) (F)
00:05 1013 29.91 843 24.89 -7.4 18.7 77 -10.7 12.7
00:10 1013 29.91 843 24.89 -7.6 18.4 78 -10.8 12.5
00:15 1013 29.91 843 24.89 -7.8 18 77 -11.1 12.1
00:20 1014 29.94 843 24.89 -8 17.7 76 -11.5 11.2
00:25 1014 29.94 843 24.89 -7.8 18 77 -11.2 11.8
00:30 1014 29.94 843 24.89 -7.7 18.2 77 -11 12.2
00:35 1013 29.91 843 24.89 -7.7 18.2 74 -11.6 11.1
00:40 1014 29.94 843 24.89 -7.5 18.4 71 -11.9 10.5
00:45 1014 29.94 843 24.89 -7.4 18.7 70 -12 10.4
00:50 1014 29.94 843 24.89 -7.6 18.3 71 -12 10.4
00:55 1014 29.94 843 24.89 -7.9 17.7 71 -12.2 10
01:00 1014 29.94 843 24.89 -8.1 17.5 70 -12.7 9.2
01:05 1014 29.94 843 24.89 -8 17.5 70 -12.6 9.3
01:10 1014 29.94 843 24.89 -8.1 17.5 70 -12.6 9.4
01:15 1014 29.94 843 24.89 -8.1 17.5 70 -12.6 9.3
01:20 1014 29.94 843 24.89 -8.1 17.5 70 -12.7 9.2
01:25 1014 29.94 843 24.89 -8.1 17.4 70 -12.6 9.3
01:30 1014 29.94 843 24.89 -8.1 17.4 69 -12.8 9
01:35 1014 29.94 843 24.89 -8.2 17.3 69 -12.9 8.9
01:40 1014 29.94 843 24.89 -8.2 17.3 71 -12.5 9.5
01:45 1014 29.94 843 24.89 -7.9 17.8 71 -12.3 9.9
01:50 1014 29.94 844 24.92 -7.9 17.7 73 -11.9 10.5
01:55 1014 29.94 844 24.92 -8.2 17.2 74 -12 10.3
02:00 1014 29.94 844 24.92 -8.4 16.9 73 -12.3 9.8
02:05 1014 29.94 844 24.92 -8.5 16.7 72 -12.7 9.1
02:10 1014 29.94 844 24.92 -8.7 16.4 72 -12.9 8.8
02:15 1014 29.94 844 24.92 -8.7 16.3 71 -13.1 8.4
02:20 1014 29.94 844 24.92 -8.7 16.4 70 -13.2 8.2
02:25 1014 29.94 844 24.92 -8.6 16.6 69 -13.3 8.1
02:30 1014 29.94 844 24.92 -8.5 16.8 69 -13.1 8.4
02:35 1015 29.97 844 24.92 -8.6 16.5 69 -13.2 8.2
02:40 1015 29.97 844 24.92 -8.8 16.1 71 -13.2 8.2
02:45 1015 29.97 844 24.92 -9.1 15.7 73 -13.1 8.5
02:50 1015 29.97 844 24.92 -9.1 15.6 70 -13.6 7.5
02:55 1015 29.97 844 24.92 -9.1 15.7 71 -13.5 7.8
03:00 1015 29.97 844 24.92 -9 15.9 71 -13.4 7.9
03:05 1014 29.94 844 24.92 -8.6 16.6 70 -13.2 8.3
03:10 1014 29.94 844 24.92 -8.4 16.9 68 -13.4 7.9
03:15 1014 29.94 844 24.92 -9.1 15.6 72 -13.3 8
03:20 1014 29.94 843 24.89 -9.3 15.2 71 -13.7 7.4
03:25 1014 29.94 843 24.89 -9.2 15.4 69 -13.9 6.9
03:30 1014 29.94 843 24.89 -9.2 15.5 68 -14.1 6.7
03:35 1014 29.94 843 24.89 -9.3 15.2 69 -14.1 6.7
03:40 1014 29.94 843 24.89 -9.5 14.9 69 -14.2 6.4
03:45 1014 29.94 843 24.89 -9.6 14.8 70 -14.1 6.6
03:50 1014 29.94 843 24.89 -9.9 14.2 74 -13.7 7.3
03:55 1014 29.94 843 24.89 -10.3 13.5 75 -13.9 7
04:00 1014 29.94 843 24.89 -10.5 13.1 76 -14 6.8
04:05 1014 29.94 843 24.89 -10.6 12.9 76 -14.1 6.6
04:10 1014 29.94 843 24.89 -10.7 12.8 78 -13.9 7
04:15 1014 29.94 843 24.89 -10.4 13.2 75 -14 6.8
04:20 1014 29.94 843 24.89 -10 14 73 -13.9 6.9
04:25 1014 29.94 843 24.89 -9.9 14.1 74 -13.8 7.2
04:30 1013 29.91 843 24.89 -9.6 14.6 71 -13.9 6.9
04:35 1013 29.91 843 24.89 -9.4 15.2 70 -13.8 7.1
04:40 1013 29.91 843 24.89 -9.5 14.9 70 -14 6.7
04:45 1013 29.91 843 24.89 -9.7 14.6 70 -14.1 6.6
04:50 1013 29.91 842 24.86 -9.9 14.2 73 -13.9 7
04:55 1013 29.91 843 24.89 -10 14 74 -13.9 7.1
05:00 1013 29.91 842 24.86 -10.1 13.8 75 -13.8 7.2
05:05 1013 29.91 842 24.86 -10.2 13.7 76 -13.7 7.4
05:10 1013 29.91 842 24.86 -10 14 74 -13.8 7.2
05:15 1013 29.91 842 24.86 -9.7 14.5 72 -13.9 6.9
05:20 1013 29.91 842 24.86 -9.4 15.1 69 -14 6.8
05:25 1013 29.91 842 24.86 -9.2 15.4 69 -13.9 6.9
05:30 1013 29.91 842 24.86 -9.2 15.5 67 -14.2 6.4
05:35 1013 29.91 842 24.86 -9.1 15.7 66 -14.2 6.4
05:40 1013 29.91 842 24.86 -9.2 15.5 67 -14.2 6.4
05:45 1013 29.91 842 24.86 -9.4 15.2 66 -14.5 5.9
05:50 1013 29.91 842 24.86 -9.4 15.2 66 -14.6 5.8
05:55 1013 29.91 842 24.86 -9.4 15 67 -14.5 6
06:00 1013 29.91 842 24.86 -9.5 14.9 67 -14.5 5.9
06:05 1012 29.88 842 24.86 -9.6 14.8 67 -14.6 5.7
06:10 1012 29.88 842 24.86 -9.8 14.3 67 -14.9 5.3
06:15 1012 29.88 842 24.86 -10 13.9 68 -14.9 5.2
06:20 1012 29.88 841 24.83 -10.2 13.6 68 -15 5
06:25 1012 29.88 841 24.83 -10.3 13.5 69 -15 5.1
06:30 1012 29.88 841 24.83 -10.1 13.7 69 -14.8 5.4
06:35 1012 29.88 841 24.83 -10.1 13.8 69 -14.7 5.6
06:40 1012 29.88 841 24.83 -10.1 13.8 69 -14.8 5.4
06:45 1012 29.88 841 24.83 -10 14 67 -15 5.1
06:50 1012 29.88 841 24.83 -9.7 14.5 66 -15 5
06:55 1012 29.88 841 24.83 -9.6 14.7 65 -15 5
07:00 1012 29.88 841 24.83 -9.6 14.8 64 -15.2 4.7
07:05 1012 29.88 841 24.83 -9.5 14.9 63 -15.2 4.6
07:10 1011 29.85 841 24.83 -9.6 14.8 64 -15.1 4.7
07:15 1011 29.85 841 24.83 -9.7 14.6 64 -15.3 4.4
07:20 1011 29.85 841 24.83 -9.6 14.6 63 -15.4 4.3
07:25 1011 29.85 841 24.83 -9.7 14.6 63 -15.4 4.2
07:30 1011 29.85 841 24.83 -9.6 14.7 63 -15.4 4.2
07:35 1011 29.85 841 24.83 -9.6 14.8 61 -15.7 3.8
07:40 1011 29.85 841 24.83 -9.3 15.2 60 -15.7 3.8
07:45 1011 29.85 840 24.81 -9.1 15.6 60 -15.6 3.9
07:50 1011 29.85 840 24.81 -9.2 15.5 60 -15.6 3.9
07:55 1011 29.85 840 24.81 -9.4 15 61 -15.7 3.8
08:00 1011 29.85 840 24.81 -9.8 14.4 62 -15.8 3.6
08:05 1011 29.85 840 24.81 -10.1 13.8 63 -15.9 3.3
08:10 1011 29.85 840 24.81 -9.8 14.3 61 -16 3.2
08:15 1011 29.85 840 24.81 -9.6 14.7 61 -15.8 3.5
08:20 1011 29.85 840 24.81 -9.7 14.6 61 -15.8 3.6
08:25 1011 29.85 840 24.81 -9.7 14.6 61 -15.8 3.5
08:30 1011 29.85 840 24.81 -9.7 14.6 61 -15.9 3.4
08:35 1011 29.85 840 24.81 -9.6 14.7 61 -15.9 3.4
08:40 1011 29.85 840 24.81 -9.6 14.7 60 -15.9 3.3
08:45 1011 29.85 840 24.81 -9.3 15.2 59 -15.9 3.3
08:50 1011 29.85 840 24.81 -9.1 15.6 59 -15.7 3.8
08:55 1011 29.85 840 24.81 -9 15.8 58 -15.7 3.7
09:00 1011 29.85 841 24.83 -8.8 16.1 57 -15.8 3.6
09:05 1011 29.85 841 24.83 -8.6 16.6 56 -15.9 3.4
09:10 1011 29.85 841 24.83 -8.3 17.1 56 -15.6 4
09:15 1011 29.85 841 24.83 -8.2 17.3 56 -15.4 4.3
09:20 1012 29.88 841 24.83 -8 17.6 56 -15.2 4.6
09:25 1012 29.88 841 24.83 -7.8 17.9 56 -15.1 4.8
09:30 1012 29.88 841 24.83 -7.8 18 56 -15.2 4.7
09:35 1012 29.88 841 24.83 -7.7 18.1 56 -15 5
09:40 1012 29.88 841 24.83 -7.7 18.1 56 -15.1 4.9
09:45 1012 29.88 841 24.83 -7.6 18.2 55 -15.1 4.8
09:50 1012 29.88 841 24.83 -7.5 18.6 55 -15.1 4.9
09:55 1012 29.88 841 24.83 -7.5 18.5 56 -14.9 5.2
10:00 1012 29.88 841 24.83 -7.5 18.5 57 -14.6 5.7
10:05 1012 29.88 841 24.83 -7.4 18.8 55 -15 5.1
10:10 1012 29.88 841 24.83 -7.3 18.9 55 -14.9 5.3
10:15 1012 29.88 841 24.83 -7.1 19.2 54 -15 5.1
10:20 1012 29.88 841 24.83 -7 19.4 54 -14.8 5.4
10:25 1012 29.88 841 24.83 -6.9 19.5 54 -14.9 5.3
10:30 1012 29.88 841 24.83 -6.8 19.7 53 -14.9 5.2
10:35 1012 29.88 841 24.83 -6.6 20 55 -14.3 6.3
10:40 1012 29.88 841 24.83 -6.3 20.7 51 -14.8 5.3
10:45 1012 29.88 841 24.83 -6.1 21.1 53 -14.3 6.3
10:50 1011 29.85 841 24.83 -5.8 21.5 49 -14.9 5.2
10:55 1011 29.85 840 24.81 -5.7 21.8 49 -14.6 5.6
11:00 1011 29.85 840 24.81 -5.6 21.9 50 -14.5 6
11:05 1011 29.85 840 24.81 -5.4 22.3 49 -14.6 5.8
11:10 1011 29.85 840 24.81 -5.3 22.5 48 -14.8 5.4
11:15 1011 29.85 840 24.81 -5.1 22.8 46 -15 4.9
11:20 1011 29.85 840 24.81 -4.9 23.1 49 -14.1 6.5
11:25 1011 29.85 840 24.81 -4.8 23.3 43 -15.5 4.1
11:30 1011 29.85 840 24.81 -4.7 23.6 44 -15 4.9
11:35 1011 29.85 840 24.81 -4.5 23.8 43 -15.3 4.5
11:40 1011 29.85 840 24.81 -4.4 24 43 -15.1 4.7
11:45 1010 29.83 840 24.81 -4.4 24.1 43 -15.3 4.5
11:50 1010 29.83 840 24.81 -4.4 24.2 43 -15.2 4.6
11:55 1010 29.83 839 24.78 -4.3 24.3 40 -16 3.1
12:00 1010 29.83 839 24.78 -4.4 24 42 -15.5 4.1
12:05 1010 29.83 839 24.78 -4.5 23.9 43 -15.2 4.6
12:10 1010 29.83 839 24.78 -4.4 24.1 44 -14.8 5.3
12:15 1010 29.83 839 24.78 -4.3 24.3 43 -15.2 4.6
12:20 1010 29.83 839 24.78 -4.3 24.3 43 -15.1 4.8
12:25 1010 29.83 839 24.78 -4 24.8 39 -16.1 3.1
12:30 1010 29.83 839 24.78 -3.7 25.4 39 -15.8 3.6
12:35 1010 29.83 839 24.78 -3.5 25.6 39 -15.7 3.8
12:40 1009 29.8 839 24.78 -3.5 25.8 40 -15.1 4.8
12:45 1009 29.8 839 24.78 -3.3 26.1 40 -15.2 4.7
12:50 1009 29.8 839 24.78 -3.4 25.8 41 -14.9 5.1
12:55 1009 29.8 838 24.75 -3.6 25.6 42 -14.7 5.6
13:00 1009 29.8 838 24.75 -3.6 25.6 43 -14.5 6
13:05 1009 29.8 838 24.75 -3.3 26 43 -14.3 6.2
13:10 1009 29.8 838 24.75 -3 26.6 42 -14.2 6.4
13:15 1009 29.8 838 24.75 -2.7 27.2 42 -13.8 7.1
13:20 1009 29.8 838 24.75 -2 28.4 40 -14 6.9
13:25 1009 29.8 838 24.75 -1.6 29.2 40 -13.6 7.5
13:30 1009 29.8 838 24.75 -1.4 29.4 40 -13.3 8.1
13:35 1009 29.8 838 24.75 -1.6 29.1 42 -12.8 8.9
13:40 1009 29.8 838 24.75 -1.8 28.8 43 -12.7 9.1
13:45 1009 29.8 838 24.75 -1.6 29.1 42 -13 8.6
13:50 1009 29.8 838 24.75 -2.1 28.2 44 -12.8 8.9
13:55 1008 29.77 838 24.75 -2.3 27.9 44 -12.9 8.7
14:00 1008 29.77 838 24.75 -2.1 28.3 43 -13.1 8.5
14:05 1008 29.77 838 24.75 -1.9 28.7 43 -13 8.7
14:10 1008 29.77 838 24.75 -2 28.4 44 -12.7 9.1
14:15 1008 29.77 838 24.75 -2.3 27.8 45 -12.8 9
14:20 1008 29.77 838 24.75 -2.4 27.8 45 -12.9 8.8
14:25 1008 29.77 838 24.75 -2.5 27.5 47 -12.4 9.7
14:30 1008 29.77 838 24.75 -2.3 27.8 44 -13.1 8.5
14:35 1008 29.77 837 24.72 -2.4 27.6 44 -13.1 8.4
14:40 1008 29.77 837 24.72 -2.1 28.2 44 -12.9 8.7
14:45 1008 29.77 838 24.75 -2.1 28.1 42 -13.3 8.1
14:50 1008 29.77 837 24.72 -2.2 28 44 -13 8.6
14:55 1008 29.77 838 24.75 -1.9 28.5 42 -13.2 8.2
15:00 1008 29.77 838 24.75 -1.6 29.1 40 -13.5 7.8
15:05 1008 29.77 838 24.75 -1.4 29.4 41 -13.1 8.4
15:10 1008 29.77 838 24.75 -1.3 29.6 40 -13.1 8.4
15:15 1009 29.8 838 24.75 -1.4 29.5 40 -13.2 8.2
15:20 1008 29.77 838 24.75 -1.4 29.5 41 -12.9 8.8
15:25 1008 29.77 838 24.75 -1.3 29.6 41 -12.9 8.9
15:30 1008 29.77 838 24.75 -1.5 29.3 45 -12.1 10.3
15:35 1008 29.77 838 24.75 -1.5 29.4 44 -12.3 9.8
15:40 1008 29.77 838 24.75 -1.4 29.5 44 -12.2 10
15:45 1008 29.77 838 24.75 -1.7 28.9 45 -12.3 9.9
15:50 1008 29.77 838 24.75 -1.6 29.1 43 -12.7 9.1
15:55 1008 29.77 837 24.72 -1.7 29 44 -12.4 9.6
16:00 1008 29.77 837 24.72 -1.6 29.1 43 -12.6 9.4
16:05 1008 29.77 837 24.72 -1.6 29.2 44 -12.4 9.6
16:10 1008 29.77 837 24.72 -1.7 29 43 -12.7 9.2
16:15 1008 29.77 837 24.72 -1.8 28.7 44 -12.5 9.5
16:20 1008 29.77 837 24.72 -1.9 28.6 44 -12.7 9.2
16:25 1008 29.77 837 24.72 -1.9 28.6 44 -12.7 9.1
16:30 1008 29.77 837 24.72 -1.9 28.5 45 -12.4 9.6
16:35 1008 29.77 837 24.72 -1.8 28.7 44 -12.4 9.6
16:40 1008 29.77 837 24.72 -1.6 29 43 -12.6 9.3
16:45 1008 29.77 837 24.72 -1.8 28.7 44 -12.6 9.4
16:50 1008 29.77 837 24.72 -2 28.4 44 -12.6 9.3
16:55 1008 29.77 837 24.72 -2.2 28.1 45 -12.6 9.4
17:00 1008 29.77 837 24.72 -2.2 28 45 -12.6 9.3
17:05 1008 29.77 837 24.72 -2.2 28.1 45 -12.5 9.5
17:10 1008 29.77 837 24.72 -2.1 28.1 46 -12.4 9.7
17:15 1008 29.77 837 24.72 -2.2 28 48 -11.8 10.7
17:20 1008 29.77 837 24.72 -2.3 27.8 49 -11.7 11
17:25 1008 29.77 837 24.72 -2.5 27.5 50 -11.6 11.2
17:30 1008 29.77 837 24.72 -2.6 27.4 50 -11.5 11.3
17:35 1008 29.77 837 24.72 -2.6 27.3 51 -11.4 11.6
17:40 1008 29.77 837 24.72 -2.7 27.2 51 -11.6 11.1
17:45 1008 29.77 837 24.72 -2.7 27.1 51 -11.5 11.2
17:50 1008 29.77 837 24.72 -2.8 27 51 -11.5 11.3
17:55 1008 29.77 837 24.72 -2.7 27.1 51 -11.5 11.3
18:00 1008 29.77 837 24.72 -2.7 27.1 54 -10.8 12.5
18:05 1008 29.77 837 24.72 -3.1 26.4 56 -10.8 12.6
18:10 1008 29.77 837 24.72 -3.3 26.1 55 -11.2 11.9
18:15 1008 29.77 837 24.72 -3.3 26.1 57 -10.6 12.8
18:20 1008 29.77 837 24.72 -3.4 25.8 58 -10.6 12.9
18:25 1008 29.77 837 24.72 -3.5 25.8 58 -10.7 12.8
18:30 1008 29.77 837 24.72 -3.4 25.8 58 -10.6 12.9
18:35 1008 29.77 837 24.72 -3.5 25.7 58 -10.6 13
18:40 1008 29.77 837 24.72 -3.5 25.7 56 -11 12.1
18:45 1008 29.77 837 24.72 -3.4 25.9 56 -11 12.2
18:50 1008 29.77 837 24.72 -3.2 26.3 55 -10.9 12.4
18:55 1008 29.77 837 24.72 -3.1 26.4 56 -10.7 12.8
19:00 1008 29.77 837 24.72 -3.2 26.3 59 -10.1 13.7
19:05 1008 29.77 837 24.72 -3.5 25.7 60 -10.2 13.6
19:10 1008 29.77 837 24.72 -3.8 25.1 62 -10 14
19:15 1008 29.77 837 24.72 -4.1 24.6 61 -10.5 13.1
19:20 1008 29.77 837 24.72 -4.3 24.2 61 -10.7 12.7
19:25 1008 29.77 837 24.72 -4.4 24.1 62 -10.7 12.8
19:30 1008 29.77 837 24.72 -4.5 24 60 -11 12.1
19:35 1008 29.77 837 24.72 -4.4 24.1 59 -11.2 11.8
19:40 1008 29.77 837 24.72 -4.3 24.3 60 -11 12.3
19:45 1008 29.77 837 24.72 -4.3 24.2 61 -10.8 12.5
19:50 1008 29.77 837 24.72 -4.4 24 61 -10.9 12.3
19:55 1008 29.77 837 24.72 -4.7 23.5 62 -10.9 12.3
20:00 1008 29.77 837 24.72 -4.9 23.1 61 -11.2 11.8
20:05 1008 29.77 837 24.72 -5 23 62 -11.3 11.7
20:10 1008 29.77 837 24.72 -5 22.9 61 -11.5 11.4
20:15 1008 29.77 837 24.72 -4.9 23.1 60 -11.6 11.2
20:20 1008 29.77 837 24.72 -4.8 23.4 60 -11.4 11.5
20:25 1008 29.77 837 24.72 -4.8 23.3 60 -11.5 11.3
20:30 1008 29.77 837 24.72 -4.8 23.3 60 -11.5 11.3
20:35 1008 29.77 837 24.72 -4.8 23.4 59 -11.6 11.1
20:40 1008 29.77 837 24.72 -4.8 23.4 58 -11.8 10.7
20:45 1008 29.77 837 24.72 -4.6 23.7 58 -11.7 10.9
20:50 1007 29.74 837 24.72 -4.7 23.6 58 -11.7 11
20:55 1007 29.74 837 24.72 -4.9 23.2 59 -11.7 10.9
21:00 1007 29.74 837 24.72 -5 23 59 -11.8 10.7
21:05 1007 29.74 837 24.72 -5 22.9 59 -11.9 10.6
21:10 1007 29.74 837 24.72 -4.9 23.2 58 -11.9 10.6
21:15 1007 29.74 837 24.72 -4.9 23.2 59 -11.8 10.7
21:20 1007 29.74 837 24.72 -4.8 23.3 58 -11.9 10.6
21:25 1007 29.74 837 24.72 -4.8 23.4 59 -11.7 11
21:30 1007 29.74 836 24.69 -5 23.1 60 -11.7 11
21:35 1007 29.74 836 24.69 -5.2 22.7 60 -11.7 10.9
21:40 1007 29.74 836 24.69 -5.3 22.5 61 -11.7 10.9
21:45 1007 29.74 836 24.69 -5.4 22.3 61 -11.7 10.9
21:50 1007 29.74 836 24.69 -5.4 22.3 61 -11.8 10.7
21:55 1007 29.74 836 24.69 -5.2 22.6 60 -11.9 10.7
22:00 1007 29.74 836 24.69 -5.1 22.9 59 -11.8 10.7
22:05 1007 29.74 836 24.69 -5.1 22.9 60 -11.8 10.8
22:10 1007 29.74 836 24.69 -5.2 22.7 60 -11.8 10.7
22:15 1007 29.74 836 24.69 -5.3 22.5 60 -11.8 10.7
22:20 1007 29.74 836 24.69 -5.4 22.3 61 -11.9 10.7
22:25 1007 29.74 836 24.69 -5.5 22.1 61 -11.8 10.7
22:30 1007 29.74 836 24.69 -5.5 22.1 63 -11.6 11.1
22:35 1007 29.74 836 24.69 -5.7 21.8 62 -11.8 10.7
22:40 1007 29.74 836 24.69 -5.4 22.2 61 -11.8 10.7
22:45 1007 29.74 836 24.69 -5.3 22.4 61 -11.7 10.9
22:50 1007 29.74 836 24.69 -5.2 22.6 61 -11.7 10.9
22:55 1007 29.74 836 24.69 -5 23 59 -11.8 10.8
23:00 1007 29.74 836 24.69 -4.6 23.6 58 -11.8 10.8
23:05 1007 29.74 836 24.69 -4.3 24.2 57 -11.6 11.1
23:10 1007 29.74 836 24.69 -4.2 24.4 57 -11.6 11.1
23:15 1007 29.74 836 24.69 -4.2 24.5 57 -11.5 11.3
23:20 1007 29.74 836 24.69 -4.2 24.4 57 -11.5 11.3
23:25 1007 29.74 836 24.69 -4.2 24.4 58 -11.4 11.5
23:30 1007 29.74 836 24.69 -4.1 24.5 57 -11.4 11.4
23:35 1007 29.74 836 24.69 -4 24.7 59 -11 12.2
23:40 1007 29.74 836 24.69 -4.5 23.9 62 -10.7 12.8
23:45 1007 29.74 836 24.69 -4.8 23.3 64 -10.6 12.9
23:50 1007 29.74 836 24.69 -4.9 23.2 63 -10.9 12.5
23:55 1007 29.74 836 24.69 -4.6 23.7 62 -10.8 12.6
24:00 1007 29.74 836 24.69 -4.4 24 61 -10.8 12.5